Time;durP1;ratioP1;P1;durP2;ratioP2;P2;SDS_P1;SDS_P2;PMS_P1;PMS_P2;Temp;Humidity;BMP_temperature;BMP_pressure;BME280_temperature;BME280_humidity;BME280_pressure;Samples;Min_cycle;Max_cycle;Signal;HPM_P1;HPM_P2
2022/10/02 00:02:34;;;;;;;14.77;9.60;;;;;;;11.51;100.00;97033.53;4917821;29;20191;-75
2022/10/02 00:05:09;;;;;;;11.30;8.70;;;;;;;11.50;100.00;97032.72;4929042;29;20201;-75
2022/10/02 00:07:50;;;;;;;11.07;9.70;;;;;;;11.57;100.00;97028.16;4936204;29;20182;-75
2022/10/02 00:10:21;;;;;;;11.30;7.97;;;;;;;11.55;100.00;97022.34;4945884;29;20233;-74
2022/10/02 00:12:51;;;;;;;10.63;8.93;;;;;;;11.62;100.00;97025.66;4950644;29;20518;-74
2022/10/02 00:15:25;;;;;;;11.57;8.90;;;;;;;11.63;100.00;97034.34;4943205;29;20548;-74
2022/10/02 00:17:55;;;;;;;12.00;8.10;;;;;;;11.65;100.00;97040.16;4936289;29;20241;-75
2022/10/02 00:20:25;;;;;;;10.87;8.10;;;;;;;11.64;100.00;97041.19;4935051;29;20190;-74
2022/10/02 00:23:12;;;;;;;9.63;8.50;;;;;;;11.71;100.00;97027.94;4936183;29;20257;-74
2022/10/02 00:25:46;;;;;;;11.07;7.50;;;;;;;11.63;100.00;97016.78;4943050;29;20208;-74
2022/10/02 00:28:26;;;;;;;10.13;9.13;;;;;;;11.63;100.00;97032.53;4936365;29;20186;-74
2022/10/02 00:31:09;;;;;;;12.83;9.40;;;;;;;11.58;100.00;97034.22;4936022;29;20225;-74
2022/10/02 00:34:09;;;;;;;10.07;8.43;;;;;;;11.65;100.00;97034.91;4947615;29;20325;-75
2022/10/02 00:36:57;;;;;;;9.83;8.87;;;;;;;11.58;100.00;97031.59;4899337;29;20197;-76
2022/10/02 00:39:44;;;;;;;10.73;7.37;;;;;;;11.64;100.00;97035.94;4923394;29;20581;-74
2022/10/02 00:42:24;;;;;;;11.43;7.90;;;;;;;11.63;100.00;97037.78;4936012;29;20197;-75
2022/10/02 00:45:14;;;;;;;11.10;8.60;;;;;;;11.52;100.00;97043.81;4937013;29;20238;-75
2022/10/02 00:48:07;;;;;;;10.60;7.53;;;;;;;11.62;100.00;97043.25;4950521;29;20236;-75
2022/10/02 00:50:53;;;;;;;8.87;6.70;;;;;;;11.67;100.00;97033.66;4954418;29;20240;-75
2022/10/02 00:53:37;;;;;;;14.37;8.70;;;;;;;11.70;100.00;97021.13;4954413;29;20185;-74
2022/10/02 00:56:32;;;;;;;9.67;7.90;;;;;;;11.64;100.00;97038.56;4949376;28;20241;-75
2022/10/02 00:59:24;;;;;;;9.63;8.73;;;;;;;11.61;100.00;97039.81;4957073;29;20177;-74
2022/10/02 01:02:00;;;;;;;10.73;7.80;;;;;;;11.56;100.00;97037.06;4957779;29;20185;-74
2022/10/02 01:04:33;;;;;;;10.53;9.63;;;;;;;11.58;100.00;97039.47;4953303;29;20194;-75
2022/10/02 01:06:59;;;;;;;12.10;9.30;;;;;;;11.70;100.00;97040.28;4947861;29;20173;-75
2022/10/02 01:09:25;;;;;;;10.80;9.07;;;;;;;11.66;100.00;97044.38;4944216;29;20233;-75
2022/10/02 01:11:51;;;;;;;9.43;8.53;;;;;;;11.64;100.00;97052.50;4953756;29;20189;-74
2022/10/02 01:14:16;;;;;;;9.03;8.43;;;;;;;11.65;100.00;97051.44;4956532;29;20280;-75
2022/10/02 01:16:43;;;;;;;10.20;9.30;;;;;;;11.63;100.00;97045.66;4957355;29;20268;-75
2022/10/02 01:19:27;;;;;;;11.13;10.00;;;;;;;11.64;100.00;97057.75;4945034;29;20189;-75
2022/10/02 01:22:03;;;;;;;11.33;10.23;;;;;;;11.66;100.00;97041.75;4939387;29;20198;-75
2022/10/02 01:24:36;;;;;;;12.20;11.03;;;;;;;11.65;100.00;97042.78;4950105;29;20295;-74
2022/10/02 01:27:01;;;;;;;10.20;9.23;;;;;;;11.61;100.00;97047.69;4957720;29;20261;-74
2022/10/02 01:29:27;;;;;;;11.87;10.60;;;;;;;11.65;100.00;97051.44;4939404;29;20268;-75
2022/10/02 01:31:53;;;;;;;11.37;9.20;;;;;;;11.63;100.00;97042.22;4939876;29;20186;-75
2022/10/02 01:34:19;;;;;;;9.53;8.63;;;;;;;11.70;100.00;97045.53;4940146;29;20249;-75
2022/10/02 01:36:44;;;;;;;10.23;8.57;;;;;;;11.76;100.00;97046.50;4938789;29;20600;-75
2022/10/02 01:39:10;;;;;;;10.53;8.60;;;;;;;11.73;100.00;97041.66;4954875;29;20304;-75
2022/10/02 01:41:41;;;;;;;8.27;7.30;;;;;;;11.72;100.00;97046.09;4957617;29;20185;-75
2022/10/02 01:44:07;;;;;;;9.57;8.20;;;;;;;11.71;100.00;97041.88;4956939;29;20515;-74
2022/10/02 01:46:55;;;;;;;12.47;8.87;;;;;;;11.77;100.00;97038.38;4946322;29;20208;-74
2022/10/02 01:49:32;;;;;;;9.67;8.67;;;;;;;11.81;100.00;97036.09;4956218;29;20264;-75
2022/10/02 01:52:20;;;;;;;10.20;9.23;;;;;;;11.80;100.00;97043.19;4957564;29;20221;-75
2022/10/02 01:55:07;;;;;;;9.13;8.20;;;;;;;11.86;100.00;97051.97;4933854;29;20266;-75
2022/10/02 01:57:44;;;;;;;9.70;8.80;;;;;;;11.86;100.00;97049.34;4946735;29;20227;-75
2022/10/02 02:00:16;;;;;;;7.43;6.73;;;;;;;11.88;100.00;97069.09;4957330;29;20178;-75
2022/10/02 02:02:48;;;;;;;12.53;8.33;;;;;;;11.86;100.00;97068.53;4955334;29;20678;-74
2022/10/02 02:05:13;;;;;;;14.30;13.23;;;;;;;11.87;100.00;97064.88;4956819;29;20296;-74
2022/10/02 02:07:38;;;;;;;8.83;8.00;;;;;;;11.88;100.00;97055.97;4955685;28;20272;-74
2022/10/02 02:10:23;;;;;;;15.40;11.80;;;;;;;11.92;100.00;97056.31;4956379;29;20229;-74
2022/10/02 02:13:03;;;;;;;14.40;13.20;;;;;;;11.93;100.00;97056.06;4942870;29;20195;-74
2022/10/02 02:16:04;;;;;;;10.93;8.70;;;;;;;11.91;100.00;97057.34;4939186;29;20245;-74
2022/10/02 02:18:40;;;;;;;10.87;6.27;;;;;;;11.99;100.00;97063.03;4938729;29;20182;-74
2022/10/02 02:21:13;;;;;;;9.23;6.77;;;;;;;11.95;100.00;97072.41;4938264;29;20178;-74
2022/10/02 02:23:42;;;;;;;6.97;6.03;;;;;;;11.97;100.00;97067.75;4937879;29;20189;-74
2022/10/02 02:26:11;;;;;;;7.10;6.50;;;;;;;11.99;100.00;97064.88;4938690;29;20569;-74
2022/10/02 02:28:42;;;;;;;8.50;7.57;;;;;;;11.96;100.00;97066.13;4956350;29;20705;-74
2022/10/02 02:31:11;;;;;;;8.17;7.27;;;;;;;12.00;100.00;97066.47;4948653;29;20178;-74
2022/10/02 02:33:46;;;;;;;9.07;7.97;;;;;;;11.99;100.00;97067.50;4920693;29;20557;-74
2022/10/02 02:36:17;;;;;;;8.17;6.27;;;;;;;12.09;100.00;97070.38;4939125;29;20177;-74
2022/10/02 02:38:51;;;;;;;7.10;6.40;;;;;;;12.07;100.00;97064.53;4956439;29;20173;-74
2022/10/02 02:41:27;;;;;;;7.57;6.80;;;;;;;12.01;100.00;97055.75;4956635;29;20681;-75
2022/10/02 02:44:09;;;;;;;11.10;6.50;;;;;;;12.02;100.00;97065.22;4956813;29;20169;-74
2022/10/02 02:47:03;;;;;;;10.77;7.03;;;;;;;11.95;100.00;97054.03;4947011;29;20190;-75
2022/10/02 02:49:44;;;;;;;8.60;7.23;;;;;;;11.97;100.00;97045.94;4956321;29;20535;-74
2022/10/02 02:52:17;;;;;;;10.43;8.10;;;;;;;12.04;100.00;97062.34;4940932;29;20182;-74
2022/10/02 02:54:48;;;;;;;11.13;8.00;;;;;;;11.99;100.00;97065.66;4937857;29;20181;-74
2022/10/02 02:57:16;;;;;;;13.27;7.67;;;;;;;12.04;100.00;97057.09;4938984;29;20272;-74
2022/10/02 02:59:47;;;;;;;11.43;8.13;;;;;;;12.04;100.00;97057.09;4945303;29;20269;-74
2022/10/02 03:02:13;;;;;;;8.77;7.23;;;;;;;12.16;100.00;97062.34;4952789;29;20523;-74
2022/10/02 03:04:38;;;;;;;9.73;7.80;;;;;;;12.11;100.00;97072.75;4956156;29;20260;-75
2022/10/02 03:07:04;;;;;;;10.47;8.77;;;;;;;12.12;100.00;97074.34;4943955;29;20650;-75
2022/10/02 03:09:32;;;;;;;12.17;7.90;;;;;;;12.09;100.00;97076.41;4936997;29;20265;-74
2022/10/02 03:12:03;;;;;;;12.60;8.40;;;;;;;12.02;100.00;97080.19;4937448;29;20582;-74
2022/10/02 03:15:07;;;;;;;11.40;10.20;;;;;;;11.98;100.00;97074.56;4951786;29;20193;-75
2022/10/02 03:17:50;;;;;;;14.07;10.50;;;;;;;12.00;100.00;97085.66;4938933;29;20186;-75
2022/10/02 03:20:41;;;;;;;12.60;11.57;;;;;;;12.06;100.00;97074.25;4936582;29;20189;-74
2022/10/02 03:23:27;;;;;;;13.70;12.37;;;;;;;12.07;100.00;97077.69;4936831;29;20209;-75
2022/10/02 03:26:08;;;;;;;11.00;10.07;;;;;;;12.16;100.00;97075.50;4939964;29;20209;-75
2022/10/02 03:28:47;;;;;;;9.33;7.93;;;;;;;12.13;100.00;97065.44;4939130;29;20175;-75
2022/10/02 03:31:14;;;;;;;9.60;8.87;;;;;;;12.16;100.00;97067.59;4937249;29;20285;-74
2022/10/02 03:33:40;;;;;;;9.97;8.97;;;;;;;12.15;100.00;97069.44;4936344;29;20178;-74
2022/10/02 03:36:06;;;;;;;11.97;9.00;;;;;;;12.08;100.00;97074.03;4953867;29;20220;-74
2022/10/02 03:38:32;;;;;;;11.77;10.70;;;;;;;12.07;100.00;97069.78;4944634;29;20232;-75
2022/10/02 03:40:58;;;;;;;13.87;12.77;;;;;;;12.12;100.00;97069.09;4937131;29;20197;-75
2022/10/02 03:43:28;;;;;;;15.30;13.70;;;;;;;12.13;100.00;97068.09;4952760;29;20192;-75
2022/10/02 03:45:53;;;;;;;12.13;10.60;;;;;;;12.09;100.00;97065.13;4954117;29;20216;-75
2022/10/02 03:48:19;;;;;;;13.57;12.27;;;;;;;12.00;100.00;97069.91;4955196;29;20544;-75
2022/10/02 03:50:45;;;;;;;16.13;14.77;;;;;;;12.03;100.00;97071.28;4955039;29;20186;-74
2022/10/02 03:53:16;;;;;;;18.23;16.83;;;;;;;12.08;100.00;97053.00;4955361;29;20200;-75
2022/10/02 03:55:58;;;;;;;15.33;13.97;;;;;;;12.04;100.00;97057.91;4951392;29;20381;-74
2022/10/02 03:58:24;;;;;;;14.03;12.70;;;;;;;12.01;100.00;97052.31;4955555;29;20541;-75
2022/10/02 04:01:01;;;;;;;14.40;12.90;;;;;;;12.01;100.00;97054.94;4954058;29;20194;-74
2022/10/02 04:03:42;;;;;;;11.93;10.90;;;;;;;12.04;100.00;97057.91;4949851;29;20236;-74
2022/10/02 04:06:16;;;;;;;12.13;9.70;;;;;;;12.06;100.00;97060.31;4945127;29;20202;-74
2022/10/02 04:08:47;;;;;;;12.40;11.30;;;;;;;11.98;100.00;97063.28;4934897;29;20173;-75
2022/10/02 04:11:22;;;;;;;12.47;10.30;;;;;;;12.01;100.00;97068.06;4935989;29;20317;-74
2022/10/02 04:14:15;;;;;;;12.00;7.97;;;;;;;12.00;100.00;97071.72;4951928;29;20173;-74
2022/10/02 04:16:48;;;;;;;10.43;9.27;;;;;;;11.96;100.00;97075.84;4949104;29;20173;-75
2022/10/02 04:19:21;;;;;;;8.60;7.47;;;;;;;11.90;100.00;97074.94;4954342;29;20333;-75
2022/10/02 04:21:58;;;;;;;12.00;8.23;;;;;;;12.01;100.00;97073.34;4955031;29;20181;-75
2022/10/02 04:24:38;;;;;;;8.00;7.17;;;;;;;12.01;100.00;97075.97;4933986;29;20260;-74
2022/10/02 04:27:31;;;;;;;12.03;7.07;;;;;;;12.08;100.00;97084.53;4951568;29;20245;-74
2022/10/02 04:30:23;;;;;;;9.13;8.07;;;;;;;11.94;100.00;97093.66;4952511;29;20193;-74
2022/10/02 04:32:49;;;;;;;8.13;7.37;;;;;;;11.96;100.00;97084.53;4932274;29;20226;-75
2022/10/02 04:35:35;;;;;;;7.77;6.97;;;;;;;11.95;100.00;97095.25;4937606;29;20197;-74
2022/10/02 04:38:09;;;;;;;9.60;8.57;;;;;;;11.94;100.00;97086.56;4951639;29;20539;-75
2022/10/02 04:40:59;;;;;;;11.57;7.77;;;;;;;12.04;100.00;97084.16;4936073;29;20281;-74
2022/10/02 04:43:53;;;;;;;9.63;7.93;;;;;;;12.02;100.00;97085.44;4936077;29;20616;-75
2022/10/02 04:46:45;;;;;;;8.50;7.57;;;;;;;11.97;100.00;97086.13;4939222;29;20713;-75
2022/10/02 04:49:58;;;;;;;8.93;8.13;;;;;;;11.90;100.00;97088.06;4948609;29;20200;-74
2022/10/02 04:52:37;;;;;;;9.30;8.60;;;;;;;11.91;100.00;97092.28;4920491;29;20292;-75
2022/10/02 04:55:11;;;;;;;9.00;7.90;;;;;;;11.93;100.00;97084.16;4954287;29;20188;-75
2022/10/02 04:57:56;;;;;;;12.73;11.67;;;;;;;11.99;100.00;97075.38;4936091;29;20184;-75
2022/10/02 05:00:24;;;;;;;14.93;13.37;;;;;;;11.90;100.00;97082.00;4945569;29;20213;-75
2022/10/02 05:02:52;;;;;;;19.27;17.60;;;;;;;11.87;100.00;97078.00;4951974;29;20271;-75
2022/10/02 05:05:30;;;;;;;17.73;16.03;;;;;;;11.88;100.00;97079.59;4952479;29;20205;-74
2022/10/02 05:08:05;;;;;;;14.80;13.70;;;;;;;11.80;100.00;97081.78;4935834;29;20196;-74
2022/10/02 05:10:52;;;;;;;18.20;16.63;;;;;;;11.85;100.00;97074.81;4935891;29;20351;-74
2022/10/02 05:13:25;;;;;;;19.43;18.17;;;;;;;11.77;100.00;97069.88;4935764;29;20190;-74
2022/10/02 05:16:11;;;;;;;20.17;18.13;;;;;;;11.77;100.00;97066.44;4940184;29;20224;-74
2022/10/02 05:18:49;;;;;;;18.00;16.50;;;;;;;11.75;100.00;97060.66;4942081;29;20636;-74
2022/10/02 05:21:23;;;;;;;16.80;15.17;;;;;;;11.83;100.00;97066.34;4935625;29;20266;-74
2022/10/02 05:24:05;;;;;;;17.37;16.03;;;;;;;11.73;100.00;97062.66;4934841;29;20186;-74
2022/10/02 05:27:12;;;;;;;17.73;16.43;;;;;;;11.74;100.00;97062.47;4946486;29;20178;-74
2022/10/02 05:29:57;;;;;;;15.30;14.10;;;;;;;11.74;100.00;97056.41;4949973;29;20190;-74
2022/10/02 05:32:43;;;;;;;18.20;16.77;;;;;;;11.78;100.00;97060.97;4935656;29;20191;-74
2022/10/02 05:35:20;;;;;;;14.10;13.10;;;;;;;11.81;100.00;97057.13;4918421;29;20519;-74
2022/10/02 05:37:54;;;;;;;13.90;12.93;;;;;;;11.71;100.00;97059.44;4954623;29;20220;-76
2022/10/02 05:40:35;;;;;;;15.93;14.57;;;;;;;11.76;100.00;97072.75;4954534;29;20196;-74
2022/10/02 05:43:10;;;;;;;13.47;10.97;;;;;;;11.72;100.00;97064.47;4941728;29;20643;-74
2022/10/02 05:45:46;;;;;;;12.40;11.20;;;;;;;11.74;100.00;97069.53;4943181;29;20555;-74
2022/10/02 05:48:16;;;;;;;12.07;11.07;;;;;;;11.74;100.00;97077.44;4957721;29;20630;-74
2022/10/02 05:50:48;;;;;;;11.43;10.63;;;;;;;11.80;100.00;97069.44;4946101;29;20193;-74
2022/10/02 05:53:27;;;;;;;15.33;14.03;;;;;;;11.80;100.00;97071.28;4938874;29;20183;-74
2022/10/02 05:56:00;;;;;;;14.60;13.27;;;;;;;11.85;100.00;97069.56;4943785;29;20602;-74
2022/10/02 05:58:46;;;;;;;14.77;13.77;;;;;;;11.90;100.00;97071.50;4955942;29;20200;-75
2022/10/02 06:01:18;;;;;;;19.17;17.47;;;;;;;11.94;100.00;97072.63;4957426;29;20209;-74
2022/10/02 06:03:52;;;;;;;21.40;19.83;;;;;;;11.95;100.00;97085.56;4957505;29;20256;-74
2022/10/02 06:06:27;;;;;;;17.27;15.87;;;;;;;12.03;100.00;97079.16;4948522;29;20556;-75
2022/10/02 06:09:15;;;;;;;18.73;17.50;;;;;;;12.07;100.00;97081.09;4938576;29;20181;-75
2022/10/02 06:12:10;;;;;;;14.70;13.50;;;;;;;11.99;100.00;97097.19;4928244;29;20206;-75
2022/10/02 06:14:57;;;;;;;14.43;13.13;;;;;;;11.92;100.00;97095.72;4957264;29;20243;-74
2022/10/02 06:17:31;;;;;;;14.80;13.43;;;;;;;11.95;100.00;97092.63;4938994;29;20193;-75
2022/10/02 06:20:00;;;;;;;17.93;16.57;;;;;;;11.95;100.00;97092.63;4938265;29;20181;-75
2022/10/02 06:22:28;;;;;;;13.00;12.07;;;;;;;12.01;100.00;97087.28;4937223;29;20202;-74
2022/10/02 06:25:15;;;;;;;14.50;13.17;;;;;;;11.96;100.00;97087.16;4938844;29;20210;-76
2022/10/02 06:27:50;;;;;;;18.27;16.77;;;;;;;11.99;100.00;97085.88;4953523;29;20196;-76
2022/10/02 06:30:17;;;;;;;18.27;16.87;;;;;;;12.04;100.00;97072.88;4957675;29;20185;-75
2022/10/02 06:33:00;;;;;;;18.37;16.77;;;;;;;11.96;100.00;97081.91;4957309;29;20197;-75
2022/10/02 06:35:52;;;;;;;16.20;15.13;;;;;;;11.93;100.00;97078.91;4938412;29;20185;-75
2022/10/02 06:38:29;;;;;;;14.70;13.47;;;;;;;11.99;100.00;97057.78;4930238;29;20216;-75
2022/10/02 06:40:59;;;;;;;14.70;13.33;;;;;;;12.02;100.00;97054.72;4953096;29;20241;-75
2022/10/02 06:43:52;;;;;;;12.87;11.80;;;;;;;11.98;100.00;97040.41;4937652;29;20182;-75
2022/10/02 06:46:31;;;;;;;13.30;12.20;;;;;;;11.92;100.00;97037.94;4938803;29;20206;-75
2022/10/02 06:49:10;;;;;;;18.00;13.03;;;;;;;11.98;100.00;97026.50;4948627;29;20186;-75
2022/10/02 06:51:58;;;;;;;16.57;11.80;;;;;;;12.00;100.00;97032.31;4956755;29;20578;-75
2022/10/02 06:54:39;;;;;;;12.23;11.13;;;;;;;12.02;100.00;97023.19;4955741;28;20298;-75
2022/10/02 06:57:25;;;;;;;12.50;11.37;;;;;;;12.14;100.00;97025.00;4945624;29;20260;-75
2022/10/02 07:00:08;;;;;;;10.47;8.37;;;;;;;11.97;100.00;97030.16;4920704;29;20257;-75
2022/10/02 07:03:16;;;;;;;13.30;12.13;;;;;;;11.95;100.00;97040.09;4937656;29;20174;-75
2022/10/02 07:06:03;;;;;;;13.47;12.27;;;;;;;11.92;100.00;97037.94;4949642;29;20200;-74
2022/10/02 07:09:11;;;;;;;13.97;12.37;;;;;;;12.00;100.00;97033.13;4956005;29;20209;-73
2022/10/02 07:12:15;;;;;;;13.43;12.13;;;;;;;11.99;100.00;97030.72;4956466;29;20190;-73
2022/10/02 07:15:11;;;;;;;11.10;10.33;;;;;;;11.98;100.00;97031.78;4913754;29;20205;-73
2022/10/02 07:17:54;;;;;;;12.60;11.30;;;;;;;12.00;100.00;97019.19;4956039;29;20177;-73
2022/10/02 07:20:45;;;;;;;16.13;14.73;;;;;;;12.02;100.00;97023.19;4956393;29;20193;-72
2022/10/02 07:23:39;;;;;;;12.00;11.00;;;;;;;12.01;100.00;97013.72;4942353;29;20245;-69
2022/10/02 07:26:07;;;;;;;9.87;9.03;;;;;;;11.96;100.00;97008.34;4932424;29;20236;-73
2022/10/02 07:28:42;;;;;;;9.20;8.30;;;;;;;11.89;100.00;97007.66;4946976;29;20213;-73
2022/10/02 07:31:22;;;;;;;11.47;9.93;;;;;;;12.00;100.00;97001.59;4937099;29;20195;-74
2022/10/02 07:34:06;;;;;;;11.67;10.33;;;;;;;12.00;100.00;96995.53;4937881;29;20174;-74
2022/10/02 07:36:54;;;;;;;11.20;10.00;;;;;;;12.11;100.00;96994.72;4935698;29;20214;-72
2022/10/02 07:39:52;;;;;;;12.90;11.00;;;;;;;11.95;100.00;96996.25;4937144;29;20209;-72
2022/10/02 07:42:35;;;;;;;15.40;13.20;;;;;;;12.14;100.00;96993.47;4942768;29;20666;-74
2022/10/02 07:45:27;;;;;;;14.20;12.90;;;;;;;12.27;100.00;96994.03;4955181;29;20193;-74
2022/10/02 07:48:40;;;;;;;14.33;12.87;;;;;;;11.92;100.00;96996.72;4945517;29;20210;-74
2022/10/02 07:51:48;;;;;;;12.53;11.53;;;;;;;11.96;100.00;97005.72;4936493;29;20249;-73
2022/10/02 07:54:38;;;;;;;11.97;10.83;;;;;;;12.04;100.00;96984.34;4943619;29;20182;-72
2022/10/02 07:57:25;;;;;;;14.23;12.87;;;;;;;12.01;100.00;96997.94;4955301;29;20177;-72
2022/10/02 07:59:56;;;;;;;13.23;10.40;;;;;;;12.07;100.00;97002.28;4955038;29;20277;-72
2022/10/02 08:02:34;;;;;;;12.27;11.13;;;;;;;12.03;100.00;96990.66;4932221;29;20201;-73
2022/10/02 08:05:04;;;;;;;11.30;8.83;;;;;;;12.10;100.00;97001.00;4944298;28;20681;-72
2022/10/02 08:07:30;;;;;;;9.77;9.00;;;;;;;11.96;100.00;96999.66;4936442;29;20194;-72
2022/10/02 08:10:02;;;;;;;11.70;10.60;;;;;;;12.00;100.00;96998.97;4936150;29;20240;-73
2022/10/02 08:12:38;;;;;;;10.37;9.43;;;;;;;12.14;100.00;97001.38;4942421;29;20189;-74
2022/10/02 08:15:05;;;;;;;11.00;9.63;;;;;;;12.23;100.00;97000.78;4953674;29;20666;-73
2022/10/02 08:17:51;;;;;;;10.57;9.47;;;;;;;12.18;100.00;97003.28;4948638;29;20547;-73
2022/10/02 08:20:31;;;;;;;16.17;14.37;;;;;;;12.34;100.00;97014.91;4949423;29;20228;-73
2022/10/02 08:23:20;;;;;;;13.73;11.03;;;;;;;12.36;100.00;97013.66;4941243;29;20189;-72
2022/10/02 08:25:55;;;;;;;12.57;10.00;;;;;;;12.34;100.00;97012.28;4913797;29;20561;-72
2022/10/02 08:28:30;;;;;;;16.43;11.23;;;;;;;12.17;100.00;97011.41;4954670;29;20181;-73
2022/10/02 08:30:57;;;;;;;12.23;11.20;;;;;;;12.27;100.00;97008.97;4935888;29;20216;-71
2022/10/02 08:33:23;;;;;;;12.17;10.97;;;;;;;12.58;100.00;96999.91;4952788;29;20260;-72
2022/10/02 08:36:36;;;;;;;12.37;11.27;;;;;;;12.71;100.00;97004.88;4927089;29;20624;-72
2022/10/02 08:39:10;;;;;;;15.10;13.87;;;;;;;12.65;100.00;96993.44;4920131;29;20225;-73
2022/10/02 08:41:48;;;;;;;9.07;8.23;;;;;;;12.54;100.00;96998.78;4944539;29;20184;-71
2022/10/02 08:44:38;;;;;;;12.60;11.23;;;;;;;12.63;100.00;96987.66;4932440;29;20196;-73
2022/10/02 08:47:39;;;;;;;10.23;9.27;;;;;;;12.97;100.00;96993.78;4938187;29;20202;-73
2022/10/02 08:50:39;;;;;;;10.90;10.00;;;;;;;13.00;100.00;96992.50;4935853;29;20173;-72
2022/10/02 08:53:26;;;;;;;9.43;8.60;;;;;;;13.33;100.00;96977.59;4935907;29;20178;-72
2022/10/02 08:56:22;;;;;;;9.40;8.00;;;;;;;13.63;100.00;96979.09;4935619;29;20182;-72
2022/10/02 08:59:08;;;;;;;10.03;8.20;;;;;;;13.48;100.00;96971.78;4935674;29;20254;-73
2022/10/02 09:02:10;;;;;;;20.90;19.30;;;;;;;13.71;100.00;96973.41;4934723;29;20177;-71
2022/10/02 09:04:48;;;;;;;19.13;17.67;;;;;;;13.64;100.00;96970.16;4935600;29;20213;-73
2022/10/02 09:07:20;;;;;;;17.30;16.07;;;;;;;13.83;100.00;96963.59;4935861;29;20178;-73
2022/10/02 09:10:17;;;;;;;17.00;15.80;;;;;;;13.79;100.00;96961.69;4930219;29;20237;-69
2022/10/02 09:13:21;;;;;;;18.97;17.67;;;;;;;14.22;100.00;96955.66;4929812;29;20233;-71
2022/10/02 09:16:07;;;;;;;17.47;16.07;;;;;;;13.90;100.00;96948.41;4947213;29;20174;-70
2022/10/02 09:18:52;;;;;;;21.13;19.57;;;;;;;14.20;100.00;96949.84;4945445;29;20235;-70
2022/10/02 09:21:26;;;;;;;34.57;32.27;;;;;;;14.19;100.00;96946.41;4943173;29;20178;-72
2022/10/02 09:24:22;;;;;;;18.17;16.73;;;;;;;14.14;100.00;96939.25;4953940;29;20183;-70
2022/10/02 09:26:58;;;;;;;11.83;10.90;;;;;;;14.43;100.00;96944.34;4933011;29;20180;-71
2022/10/02 09:29:57;;;;;;;14.47;13.50;;;;;;;14.71;100.00;96944.09;4937431;29;20445;-70
2022/10/02 09:32:46;;;;;;;29.00;27.17;;;;;;;15.14;100.00;96937.94;4945478;29;20236;-70
2022/10/02 09:35:34;;;;;;;19.27;17.83;;;;;;;15.13;100.00;96938.19;4925197;29;20192;-70
2022/10/02 09:38:46;;;;;;;11.53;10.27;;;;;;;15.43;100.00;96930.50;4944743;29;20565;-71
2022/10/02 09:41:29;;;;;;;18.00;16.80;;;;;;;15.66;100.00;96926.72;4921109;29;20205;-70
2022/10/02 09:44:22;;;;;;;11.23;10.47;;;;;;;15.98;100.00;96929.28;4947382;29;20182;-69
2022/10/02 09:47:02;;;;;;;13.37;12.23;;;;;;;15.77;100.00;96923.09;4945274;29;20272;-70
2022/10/02 09:50:11;;;;;;;14.10;13.03;;;;;;;15.41;100.00;96927.31;4936227;29;20646;-69
2022/10/02 09:53:11;;;;;;;12.50;11.67;;;;;;;15.27;100.00;96932.22;4938252;29;20202;-69
2022/10/02 09:55:59;;;;;;;10.17;9.37;;;;;;;15.30;100.00;96942.28;4938692;29;20186;-69
2022/10/02 09:59:03;;;;;;;23.80;21.77;;;;;;;14.51;100.00;96941.25;4938174;29;20268;-69
2022/10/02 10:01:52;;;;;;;27.37;25.47;;;;;;;13.82;100.00;96950.66;4881707;29;20275;-71
2022/10/02 10:04:49;;;;;;;24.30;22.37;;;;;;;13.82;100.00;96950.66;4936944;29;20178;-70
2022/10/02 10:07:56;;;;;;;15.93;14.57;;;;;;;13.55;100.00;96940.00;4939544;29;20209;-72
2022/10/02 10:10:34;;;;;;;15.17;13.80;;;;;;;13.30;100.00;96957.03;4938300;29;20251;-71
2022/10/02 10:13:33;;;;;;;15.13;13.67;;;;;;;13.11;100.00;96973.22;4938484;29;20237;-71
2022/10/02 10:16:28;;;;;;;12.13;10.97;;;;;;;13.00;100.00;96955.66;4946085;29;20177;-71
2022/10/02 10:19:05;;;;;;;13.10;11.83;;;;;;;13.02;100.00;96969.41;4931487;29;20218;-71
2022/10/02 10:21:46;;;;;;;16.70;15.40;;;;;;;12.93;100.00;96972.41;4950686;29;20189;-71
2022/10/02 10:24:33;;;;;;;13.60;12.57;;;;;;;12.82;100.00;96972.47;4953775;29;20205;-72
2022/10/02 10:27:29;;;;;;;12.10;10.10;;;;;;;12.67;100.00;96978.25;4934369;29;20204;-72
2022/10/02 10:30:31;;;;;;;20.17;12.87;;;;;;;12.41;100.00;96989.31;4954757;28;20185;-71
2022/10/02 10:33:41;;;;;;;12.37;10.00;;;;;;;12.28;100.00;96981.69;4948724;29;20177;-71
2022/10/02 10:39:46;;;;;;;16.00;14.37;;;;;;;12.38;100.00;96974.00;4957193;29;20758;-71
2022/10/02 10:42:23;;;;;;;11.07;10.03;;;;;;;12.19;100.00;96959.44;4893697;29;20227;-72
2022/10/02 10:44:58;;;;;;;17.00;15.50;;;;;;;12.57;100.00;96950.97;4943013;29;20611;-72
2022/10/02 10:47:42;;;;;;;16.93;15.63;;;;;;;12.45;100.00;96975.47;4938373;29;20193;-73
2022/10/02 10:50:20;;;;;;;17.87;16.47;;;;;;;12.54;100.00;96972.47;4955202;29;20598;-73
2022/10/02 10:53:06;;;;;;;22.40;16.73;;;;;;;12.63;100.00;96976.31;4937741;29;20190;-72
2022/10/02 10:55:38;;;;;;;18.27;16.93;;;;;;;12.54;100.00;96970.63;4938078;29;20208;-72
2022/10/02 10:58:40;;;;;;;21.17;19.67;;;;;;;12.78;100.00;96981.84;4938288;29;20184;-73
2022/10/02 11:01:22;;;;;;;19.20;17.93;;;;;;;12.63;100.00;96986.84;4954675;29;20239;-72
2022/10/02 11:04:15;;;;;;;22.57;20.53;;;;;;;12.32;100.00;96978.34;4953174;29;20193;-72
2022/10/02 11:06:50;;;;;;;19.00;17.67;;;;;;;12.47;100.00;96969.97;4951362;29;20177;-72
2022/10/02 11:09:52;;;;;;;17.10;15.87;;;;;;;12.50;100.00;96985.28;4944034;29;20198;-71
2022/10/02 11:12:37;;;;;;;23.97;20.43;;;;;;;12.43;100.00;96992.50;4954963;29;20202;-72
2022/10/02 11:15:06;;;;;;;25.47;23.70;;;;;;;12.48;100.00;96987.34;4956381;29;20192;-71
2022/10/02 11:17:49;;;;;;;23.60;21.40;;;;;;;12.48;100.00;96996.00;4955959;29;20650;-72
2022/10/02 11:20:35;;;;;;;23.03;21.40;;;;;;;12.64;100.00;96988.44;4938054;29;20189;-72
2022/10/02 11:23:06;;;;;;;25.70;23.60;;;;;;;12.83;100.00;96998.53;4937288;29;20182;-71
2022/10/02 11:25:43;;;;;;;22.83;20.53;;;;;;;12.97;100.00;96990.38;4936653;29;20210;-73
2022/10/02 11:28:46;;;;;;;23.63;21.73;;;;;;;12.74;100.00;96989.44;4938404;29;20190;-72
2022/10/02 11:31:46;;;;;;;26.30;16.20;;;;;;;12.51;100.00;97000.03;4950268;29;20198;-72
2022/10/02 11:34:27;;;;;;;49.93;20.90;;;;;;;12.48;100.00;96985.50;4936622;29;20214;-72
2022/10/02 11:36:55;;;;;;;15.50;14.30;;;;;;;12.46;100.00;96984.16;4941901;29;20185;-72
2022/10/02 11:40:06;;;;;;;18.53;17.23;;;;;;;12.44;100.00;96983.56;4942426;29;20648;-72
2022/10/02 11:42:47;;;;;;;15.33;14.43;;;;;;;12.43;100.00;96976.72;4912930;29;20193;-71
2022/10/02 11:45:42;;;;;;;19.53;18.03;;;;;;;12.47;100.00;96972.59;4954001;29;20208;-72
2022/10/02 11:48:20;;;;;;;20.70;19.40;;;;;;;12.44;100.00;96978.31;4901405;29;20194;-72
2022/10/02 11:51:09;;;;;;;14.90;13.90;;;;;;;12.48;100.00;96974.97;4955020;29;20185;-71
2022/10/02 11:53:59;;;;;;;15.37;14.40;;;;;;;12.42;100.00;96986.47;4945251;29;20900;-72
2022/10/02 11:56:42;;;;;;;16.37;15.40;;;;;;;12.48;100.00;96990.00;4951999;29;20217;-71
2022/10/02 11:59:37;;;;;;;14.30;13.37;;;;;;;12.43;100.00;96988.03;4927412;29;20185;-71
2022/10/02 12:02:10;;;;;;;17.17;16.23;;;;;;;12.25;100.00;96982.16;4953672;29;20174;-73
2022/10/02 12:04:38;;;;;;;14.60;13.80;;;;;;;12.34;100.00;96994.69;4936963;29;20183;-73
2022/10/02 12:07:55;;;;;;;20.97;19.67;;;;;;;12.42;100.00;96993.53;4926158;29;20194;-73
2022/10/02 12:10:40;;;;;;;21.90;19.93;;;;;;;12.57;100.00;96983.31;4904846;29;20237;-73
2022/10/02 12:13:20;;;;;;;16.53;15.53;;;;;;;12.63;100.00;96974.50;4936252;29;20188;-74
2022/10/02 12:16:07;;;;;;;19.40;18.10;;;;;;;12.52;100.00;96967.44;4939821;29;20256;-73
2022/10/02 12:18:41;;;;;;;14.10;13.30;;;;;;;12.67;100.00;96974.81;4937786;29;20185;-73
2022/10/02 12:28:02;;;;;;;13.20;12.30;;;;;;;12.59;100.00;96977.84;4947375;29;20297;-74
2022/10/02 12:31:01;;;;;;;12.43;11.73;;;;;;;12.42;100.00;96973.31;4931714;29;20642;-73